Time,TemperatureF,DewpointF,PressureIn,WindDirection,WindDirectionDegrees,WindSpeedMPH,WindSpeedGustMPH,Humidity,HourlyPrecipIn,Conditions,Clouds,dailyrainin,SolarRadiationWatts/m^2,SoftwareType,DateUTC
2013-07-05 00:01:00,76.8,72.2,30.11,SW,236,13.0,17.0,86,0.00,,,0.00,0,HR-IXPWINDi_r2_v1.2.,2013-07-05 04:01:00,
2013-07-05 00:06:00,77.6,72.7,30.11,SW,223,9.0,17.0,85,0.00,,,0.00,0,HR-IXPWINDi_r2_v1.2.,2013-07-05 04:06:00,
2013-07-05 00:11:00,77.9,72.6,30.11,SW,223,14.0,17.0,84,0.00,,,0.00,0,HR-IXPWINDi_r2_v1.2.,2013-07-05 04:11:00,
2013-07-05 00:16:00,77.5,72.2,30.12,WSW,238,11.0,16.0,84,0.00,,,0.00,0,HR-IXPWINDi_r2_v1.2.,2013-07-05 04:16:00,
2013-07-05 00:21:00,77.1,71.8,30.11,SW,216,12.0,16.0,84,0.00,,,0.00,0,HR-IXPWINDi_r2_v1.2.,2013-07-05 04:21:00,
2013-07-05 00:26:00,76.7,71.4,30.11,SW,223,12.0,16.0,84,0.00,,,0.00,0,HR-IXPWINDi_r2_v1.2.,2013-07-05 04:26:00,
2013-07-05 00:32:00,76.4,71.1,30.11,SSW,213,12.0,15.0,84,0.00,,,0.00,0,HR-IXPWINDi_r2_v1.2.,2013-07-05 04:32:00,
2013-07-05 00:37:00,76.0,71.1,30.11,SW,220,11.0,15.0,85,0.00,,,0.00,0,HR-IXPWINDi_r2_v1.2.,2013-07-05 04:37:00,
2013-07-05 00:42:00,75.7,70.8,30.11,SW,219,13.0,15.0,85,0.00,,,0.00,0,HR-IXPWINDi_r2_v1.2.,2013-07-05 04:42:00,
2013-07-05 00:47:00,75.8,71.3,30.11,SW,221,14.0,16.0,86,0.00,,,0.00,0,HR-IXPWINDi_r2_v1.2.,2013-07-05 04:47:00,
2013-07-05 00:52:00,76.2,71.6,30.11,SW,227,13.0,16.0,86,0.00,,,0.00,0,HR-IXPWINDi_r2_v1.2.,2013-07-05 04:52:00,
2013-07-05 00:58:00,76.2,71.6,30.11,SW,222,9.0,16.0,86,0.00,,,0.00,0,HR-IXPWINDi_r2_v1.2.,2013-07-05 04:58:00,
2013-07-05 01:03:00,75.9,70.7,30.11,SSW,209,11.0,14.0,84,0.00,,,0.00,0,HR-IXPWINDi_r2_v1.2.,2013-07-05 05:03:00,
2013-07-05 01:08:00,75.5,71.0,30.11,SW,227,13.0,14.0,86,0.00,,,0.00,0,HR-IXPWINDi_r2_v1.2.,2013-07-05 05:08:00,
2013-07-05 01:14:00,75.6,71.1,30.11,SW,234,10.0,14.0,86,0.00,,,0.00,0,HR-IXPWINDi_r2_v1.2.,2013-07-05 05:14:00,
2013-07-05 01:19:00,75.4,70.9,30.11,SW,226,10.0,14.0,86,0.00,,,0.00,0,HR-IXPWINDi_r2_v1.2.,2013-07-05 05:19:00,
2013-07-05 01:24:00,75.3,70.8,30.11,SW,217,13.0,14.0,86,0.00,,,0.00,0,HR-IXPWINDi_r2_v1.2.,2013-07-05 05:24:00,
2013-07-05 01:29:00,74.9,70.4,30.11,SSW,209,8.0,13.0,86,0.00,,,0.00,0,HR-IXPWINDi_r2_v1.2.,2013-07-05 05:29:00,
2013-07-05 01:34:00,74.7,70.5,30.11,SSW,212,8.0,13.0,87,0.00,,,0.00,0,HR-IXPWINDi_r2_v1.2.,2013-07-05 05:34:00,
2013-07-05 01:39:00,74.7,70.8,30.11,SW,222,10.0,13.0,88,0.00,,,0.00,0,HR-IXPWINDi_r2_v1.2.,2013-07-05 05:39:00,
2013-07-05 01:45:00,75.3,71.4,30.11,WSW,244,10.0,12.0,88,0.00,,,0.00,0,HR-IXPWINDi_r2_v1.2.,2013-07-05 05:45:00,
2013-07-05 01:50:00,76.4,72.2,30.11,SSW,210,9.0,14.0,87,0.00,,,0.00,0,HR-IXPWINDi_r2_v1.2.,2013-07-05 05:50:00,
2013-07-05 01:55:00,76.9,72.0,30.11,SW,221,12.0,14.0,85,0.00,,,0.00,0,HR-IXPWINDi_r2_v1.2.,2013-07-05 05:55:00,
2013-07-05 02:00:00,76.6,71.7,30.11,SW,235,11.0,14.0,85,0.00,,,0.00,0,HR-IXPWINDi_r2_v1.2.,2013-07-05 06:00:00,
2013-07-05 02:06:00,76.9,72.0,30.11,SW,217,11.0,14.0,85,0.00,,,0.00,0,HR-IXPWINDi_r2_v1.2.,2013-07-05 06:06:00,
2013-07-05 02:11:00,77.3,72.4,30.11,SSW,202,12.0,15.0,85,0.00,,,0.00,0,HR-IXPWINDi_r2_v1.2.,2013-07-05 06:11:00,
2013-07-05 02:16:00,77.5,72.2,30.11,WSW,240,10.0,15.0,84,0.00,,,0.00,0,HR-IXPWINDi_r2_v1.2.,2013-07-05 06:16:00,
2013-07-05 02:21:00,77.8,72.5,30.11,SSW,212,10.0,15.0,84,0.00,,,0.00,0,HR-IXPWINDi_r2_v1.2.,2013-07-05 06:21:00,
2013-07-05 02:26:00,77.9,72.3,30.11,SW,222,9.0,14.0,83,0.00,,,0.00,0,HR-IXPWINDi_r2_v1.2.,2013-07-05 06:26:00,
2013-07-05 02:32:00,77.5,71.5,30.11,SW,226,10.0,15.0,82,0.00,,,0.00,0,HR-IXPWINDi_r2_v1.2.,2013-07-05 06:32:00,
2013-07-05 02:38:00,77.2,71.9,30.11,SW,225,11.0,15.0,84,0.00,,,0.00,0,HR-IXPWINDi_r2_v1.2.,2013-07-05 06:38:00,
2013-07-05 02:43:00,77.2,71.9,30.11,SW,220,12.0,16.0,84,0.00,,,0.00,0,HR-IXPWINDi_r2_v1.2.,2013-07-05 06:43:00,
2013-07-05 02:48:00,77.5,72.2,30.11,SW,219,10.0,18.0,84,0.00,,,0.00,0,HR-IXPWINDi_r2_v1.2.,2013-07-05 06:48:00,
2013-07-05 02:53:00,77.5,72.2,30.11,WSW,242,12.0,18.0,84,0.00,,,0.00,0,HR-IXPWINDi_r2_v1.2.,2013-07-05 06:53:00,
2013-07-05 02:59:00,77.6,72.3,30.11,WSW,245,11.0,16.0,84,0.00,,,0.00,0,HR-IXPWINDi_r2_v1.2.,2013-07-05 06:59:00,
2013-07-05 03:04:00,77.7,72.4,30.11,SW,234,9.0,15.0,84,0.00,,,0.00,0,HR-IXPWINDi_r2_v1.2.,2013-07-05 07:04:00,
2013-07-05 03:09:00,77.7,72.1,30.11,West,266,11.0,15.0,83,0.00,,,0.00,0,HR-IXPWINDi_r2_v1.2.,2013-07-05 07:09:00,
2013-07-05 03:14:00,77.8,72.2,30.11,SW,223,12.0,14.0,83,0.00,,,0.00,0,HR-IXPWINDi_r2_v1.2.,2013-07-05 07:14:00,
2013-07-05 03:19:00,77.9,72.3,30.11,West,266,7.0,15.0,83,0.00,,,0.00,0,HR-IXPWINDi_r2_v1.2.,2013-07-05 07:19:00,
2013-07-05 03:25:00,78.0,72.4,30.11,SSW,205,7.0,15.0,83,0.00,,,0.00,0,HR-IXPWINDi_r2_v1.2.,2013-07-05 07:25:00,
2013-07-05 03:30:00,78.2,72.6,30.11,West,259,12.0,17.0,83,0.00,,,0.00,0,HR-IXPWINDi_r2_v1.2.,2013-07-05 07:30:00,
2013-07-05 03:35:00,78.3,72.7,30.11,SW,235,8.0,17.0,83,0.00,,,0.00,0,HR-IXPWINDi_r2_v1.2.,2013-07-05 07:35:00,
2013-07-05 03:40:00,78.3,72.7,30.11,WSW,244,9.0,17.0,83,0.00,,,0.00,0,HR-IXPWINDi_r2_v1.2.,2013-07-05 07:40:00,
2013-07-05 03:45:00,78.1,72.5,30.11,SSW,202,8.0,17.0,83,0.00,,,0.00,0,HR-IXPWINDi_r2_v1.2.,2013-07-05 07:45:00,
2013-07-05 03:50:00,78.0,72.4,30.11,SW,228,10.0,15.0,83,0.00,,,0.00,0,HR-IXPWINDi_r2_v1.2.,2013-07-05 07:50:00,
2013-07-05 03:55:00,77.9,72.3,30.11,SW,236,10.0,13.0,83,0.00,,,0.00,0,HR-IXPWINDi_r2_v1.2.,2013-07-05 07:55:00,
2013-07-05 04:01:00,77.9,72.3,30.11,SSW,194,8.0,15.0,83,0.00,,,0.00,0,HR-IXPWINDi_r2_v1.2.,2013-07-05 08:01:00,
2013-07-05 04:06:00,78.0,72.4,30.11,West,267,8.0,15.0,83,0.00,,,0.00,0,HR-IXPWINDi_r2_v1.2.,2013-07-05 08:06:00,
2013-07-05 04:11:00,77.9,72.3,30.11,SW,236,8.0,14.0,83,0.00,,,0.00,0,HR-IXPWINDi_r2_v1.2.,2013-07-05 08:11:00,
2013-07-05 04:17:00,77.9,72.3,30.11,SW,231,8.0,13.0,83,0.00,,,0.00,0,HR-IXPWINDi_r2_v1.2.,2013-07-05 08:17:00,
2013-07-05 04:22:00,77.8,72.2,30.11,WSW,248,10.0,13.0,83,0.00,,,0.00,0,HR-IXPWINDi_r2_v1.2.,2013-07-05 08:22:00,
2013-07-05 04:27:00,77.8,72.2,30.11,WSW,240,8.0,14.0,83,0.00,,,0.00,0,HR-IXPWINDi_r2_v1.2.,2013-07-05 08:27:00,
2013-07-05 04:32:00,77.7,72.1,30.11,SW,215,6.0,14.0,83,0.00,,,0.00,0,HR-IXPWINDi_r2_v1.2.,2013-07-05 08:32:00,
2013-07-05 04:37:00,77.7,72.1,30.11,SSW,212,7.0,11.0,83,0.00,,,0.00,0,HR-IXPWINDi_r2_v1.2.,2013-07-05 08:37:00,
2013-07-05 04:43:00,77.6,72.0,30.11,WSW,249,7.0,11.0,83,0.00,,,0.00,0,HR-IXPWINDi_r2_v1.2.,2013-07-05 08:43:00,
2013-07-05 04:48:00,77.6,72.3,30.11,WSW,257,8.0,12.0,84,0.00,,,0.00,0,HR-IXPWINDi_r2_v1.2.,2013-07-05 08:48:00,
2013-07-05 04:53:00,77.6,72.3,30.12,SSW,202,5.0,12.0,84,0.00,,,0.00,0,HR-IXPWINDi_r2_v1.2.,2013-07-05 08:53:00,
2013-07-05 04:58:00,77.7,72.1,30.12,WSW,257,6.0,12.0,83,0.00,,,0.00,0,HR-IXPWINDi_r2_v1.2.,2013-07-05 08:58:00,
2013-07-05 05:03:00,77.6,72.3,30.12,SSW,204,7.0,11.0,84,0.00,,,0.00,0,HR-IXPWINDi_r2_v1.2.,2013-07-05 09:03:00,
2013-07-05 05:08:00,77.6,72.3,30.12,WSW,241,8.0,9.0,84,0.00,,,0.00,0,HR-IXPWINDi_r2_v1.2.,2013-07-05 09:08:00,
2013-07-05 05:13:00,77.6,72.3,30.13,WSW,254,7.0,10.0,84,0.00,,,0.00,0,HR-IXPWINDi_r2_v1.2.,2013-07-05 09:13:00,
2013-07-05 05:18:00,77.6,72.3,30.13,WSW,256,4.0,10.0,84,0.00,,,0.00,5,HR-IXPWINDi_r2_v1.2.,2013-07-05 09:18:00,
2013-07-05 05:23:00,77.6,72.3,30.13,WSW,244,6.0,8.0,84,0.00,,,0.00,7,HR-IXPWINDi_r2_v1.2.,2013-07-05 09:23:00,
2013-07-05 05:28:00,77.5,72.2,30.13,WSW,252,6.0,9.0,84,0.00,,,0.00,9,HR-IXPWINDi_r2_v1.2.,2013-07-05 09:28:00,
2013-07-05 05:34:00,77.7,72.4,30.13,West,267,4.0,9.0,84,0.00,,,0.00,12,HR-IXPWINDi_r2_v1.2.,2013-07-05 09:34:00,
2013-07-05 05:39:00,77.7,72.4,30.13,WSW,238,7.0,11.0,84,0.00,,,0.00,14,HR-IXPWINDi_r2_v1.2.,2013-07-05 09:39:00,
2013-07-05 05:44:00,77.6,72.3,30.13,SW,230,5.0,11.0,84,0.00,,,0.00,16,HR-IXPWINDi_r2_v1.2.,2013-07-05 09:44:00,
2013-07-05 05:49:00,77.6,72.3,30.13,SW,235,6.0,9.0,84,0.00,,,0.00,19,HR-IXPWINDi_r2_v1.2.,2013-07-05 09:49:00,
2013-07-05 05:54:00,77.6,72.3,30.13,West,271,6.0,10.0,84,0.00,,,0.00,21,HR-IXPWINDi_r2_v1.2.,2013-07-05 09:54:00,
2013-07-05 05:59:00,77.6,72.3,30.14,WSW,250,7.0,10.0,84,0.00,,,0.00,26,HR-IXPWINDi_r2_v1.2.,2013-07-05 09:59:00,
2013-07-05 06:04:00,77.5,72.2,30.14,West,264,6.0,9.0,84,0.00,,,0.00,37,HR-IXPWINDi_r2_v1.2.,2013-07-05 10:04:00,
2013-07-05 06:09:00,77.6,72.3,30.13,WSW,247,6.0,10.0,84,0.00,,,0.00,51,HR-IXPWINDi_r2_v1.2.,2013-07-05 10:09:00,
2013-07-05 06:15:00,77.6,72.3,30.14,SW,226,6.0,10.0,84,0.00,,,0.00,69,HR-IXPWINDi_r2_v1.2.,2013-07-05 10:15:00,
2013-07-05 06:20:00,77.6,72.3,30.14,SW,231,5.0,9.0,84,0.00,,,0.00,90,HR-IXPWINDi_r2_v1.2.,2013-07-05 10:20:00,
2013-07-05 06:25:00,77.6,72.3,30.14,SW,217,7.0,9.0,84,0.00,,,0.00,107,HR-IXPWINDi_r2_v1.2.,2013-07-05 10:25:00,
2013-07-05 06:30:00,77.6,72.3,30.14,SW,231,5.0,9.0,84,0.00,,,0.00,125,HR-IXPWINDi_r2_v1.2.,2013-07-05 10:30:00,
2013-07-05 06:36:00,76.9,71.3,30.14,SW,219,5.0,9.0,83,0.00,,,0.00,141,HR-IXPWINDi_r2_v1.2.,2013-07-05 10:36:00,
2013-07-05 06:41:00,75.9,71.0,30.14,SSW,203,6.0,9.0,85,0.00,,,0.00,158,HR-IXPWINDi_r2_v1.2.,2013-07-05 10:41:00,
2013-07-05 06:46:00,76.1,71.2,30.14,SW,217,6.0,9.0,85,0.00,,,0.00,174,HR-IXPWINDi_r2_v1.2.,2013-07-05 10:46:00,
2013-07-05 06:51:00,76.6,72.0,30.14,WSW,245,6.0,9.0,86,0.00,,,0.00,188,HR-IXPWINDi_r2_v1.2.,2013-07-05 10:51:00,
2013-07-05 06:56:00,76.8,71.9,30.14,WSW,247,8.0,9.0,85,0.00,,,0.00,200,HR-IXPWINDi_r2_v1.2.,2013-07-05 10:56:00,
2013-07-05 07:01:00,76.9,71.6,30.14,WSW,238,5.0,9.0,84,0.00,,,0.00,216,HR-IXPWINDi_r2_v1.2.,2013-07-05 11:01:00,
2013-07-05 07:07:00,77.7,72.4,30.15,SSW,207,6.0,10.0,84,0.00,,,0.00,230,HR-IXPWINDi_r2_v1.2.,2013-07-05 11:07:00,
2013-07-05 07:12:00,78.0,72.4,30.14,WSW,243,6.0,10.0,83,0.00,,,0.00,244,HR-IXPWINDi_r2_v1.2.,2013-07-05 11:12:00,
2013-07-05 07:17:00,78.5,72.9,30.14,WSW,248,6.0,9.0,83,0.00,,,0.00,258,HR-IXPWINDi_r2_v1.2.,2013-07-05 11:17:00,
2013-07-05 07:22:00,78.8,72.8,30.14,WSW,245,5.0,9.0,82,0.00,,,0.00,274,HR-IXPWINDi_r2_v1.2.,2013-07-05 11:22:00,
2013-07-05 07:27:00,79.0,73.0,30.14,SSW,213,4.0,9.0,82,0.00,,,0.00,288,HR-IXPWINDi_r2_v1.2.,2013-07-05 11:27:00,
2013-07-05 07:32:00,79.1,72.7,30.14,SW,216,4.0,9.0,81,0.00,,,0.00,304,HR-IXPWINDi_r2_v1.2.,2013-07-05 11:32:00,
2013-07-05 07:38:00,79.5,73.1,30.15,SW,217,5.0,11.0,81,0.00,,,0.00,320,HR-IXPWINDi_r2_v1.2.,2013-07-05 11:38:00,
2013-07-05 07:43:00,79.8,73.0,30.15,WSW,254,9.0,12.0,80,0.00,,,0.00,336,HR-IXPWINDi_r2_v1.2.,2013-07-05 11:43:00,
2013-07-05 07:48:00,79.8,73.0,30.14,WSW,248,6.0,12.0,80,0.00,,,0.00,348,HR-IXPWINDi_r2_v1.2.,2013-07-05 11:48:00,
2013-07-05 07:53:00,80.0,73.2,30.15,SW,225,7.0,11.0,80,0.00,,,0.00,364,HR-IXPWINDi_r2_v1.2.,2013-07-05 11:53:00,
2013-07-05 07:58:00,80.4,73.2,30.15,SW,234,6.0,13.0,79,0.00,,,0.00,380,HR-IXPWINDi_r2_v1.2.,2013-07-05 11:58:00,
2013-07-05 08:03:00,80.7,73.5,30.14,WSW,252,8.0,13.0,79,0.00,,,0.00,394,HR-IXPWINDi_r2_v1.2.,2013-07-05 12:03:00,
2013-07-05 08:08:00,80.9,73.3,30.15,WSW,254,7.0,11.0,78,0.00,,,0.00,408,HR-IXPWINDi_r2_v1.2.,2013-07-05 12:08:00,
2013-07-05 08:13:00,81.2,73.3,30.15,WSW,254,9.0,12.0,77,0.00,,,0.00,425,HR-IXPWINDi_r2_v1.2.,2013-07-05 12:13:00,
2013-07-05 08:19:00,81.2,73.3,30.15,SW,233,6.0,12.0,77,0.00,,,0.00,439,HR-IXPWINDi_r2_v1.2.,2013-07-05 12:19:00,
2013-07-05 08:24:00,80.8,72.9,30.15,SW,231,4.0,11.0,77,0.00,,,0.00,455,HR-IXPWINDi_r2_v1.2.,2013-07-05 12:24:00,
2013-07-05 08:29:00,81.2,73.3,30.15,SW,224,6.0,11.0,77,0.00,,,0.00,471,HR-IXPWINDi_r2_v1.2.,2013-07-05 12:29:00,
2013-07-05 08:34:00,81.3,73.0,30.15,SW,234,5.0,8.0,76,0.00,,,0.00,482,HR-IXPWINDi_r2_v1.2.,2013-07-05 12:34:00,
2013-07-05 08:39:00,80.8,72.1,30.15,SSW,207,4.0,8.0,75,0.00,,,0.00,497,HR-IXPWINDi_r2_v1.2.,2013-07-05 12:39:00,
2013-07-05 08:44:00,80.8,72.1,30.15,SSW,210,4.0,7.0,75,0.00,,,0.00,512,HR-IXPWINDi_r2_v1.2.,2013-07-05 12:44:00,
2013-07-05 08:50:00,80.7,73.1,30.14,West,261,3.0,7.0,78,0.00,,,0.00,527,HR-IXPWINDi_r2_v1.2.,2013-07-05 12:50:00,
2013-07-05 08:55:00,81.5,73.9,30.14,SW,221,3.0,7.0,78,0.00,,,0.00,541,HR-IXPWINDi_r2_v1.2.,2013-07-05 12:55:00,
2013-07-05 09:00:00,82.7,73.9,30.14,WSW,244,4.0,7.0,75,0.00,,,0.00,555,HR-IXPWINDi_r2_v1.2.,2013-07-05 13:00:00,
2013-07-05 09:05:00,83.0,73.8,30.14,WSW,243,5.0,8.0,74,0.00,,,0.00,566,HR-IXPWINDi_r2_v1.2.,2013-07-05 13:05:00,
2013-07-05 09:10:00,83.3,74.1,30.14,West,274,4.0,13.0,74,0.00,,,0.00,584,HR-IXPWINDi_r2_v1.2.,2013-07-05 13:10:00,
2013-07-05 09:15:00,83.7,74.1,30.14,West,263,5.0,13.0,73,0.00,,,0.00,598,HR-IXPWINDi_r2_v1.2.,2013-07-05 13:15:00,
2013-07-05 09:21:00,84.3,74.2,30.14,WNW,298,6.0,12.0,72,0.00,,,0.00,612,HR-IXPWINDi_r2_v1.2.,2013-07-05 13:21:00,
2013-07-05 09:26:00,84.5,74.0,30.14,SW,218,5.0,10.0,71,0.00,,,0.00,622,HR-IXPWINDi_r2_v1.2.,2013-07-05 13:26:00,
2013-07-05 09:31:00,84.4,73.9,30.14,SW,236,4.0,9.0,71,0.00,,,0.00,635,HR-IXPWINDi_r2_v1.2.,2013-07-05 13:31:00,
2013-07-05 09:36:00,84.7,74.2,30.13,SW,227,4.0,7.0,71,0.00,,,0.00,645,HR-IXPWINDi_r2_v1.2.,2013-07-05 13:36:00,
2013-07-05 09:41:00,84.9,74.0,30.13,SSW,211,4.0,6.0,70,0.00,,,0.00,661,HR-IXPWINDi_r2_v1.2.,2013-07-05 13:41:00,
2013-07-05 09:46:00,83.5,73.1,30.13,WSW,243,3.0,6.0,71,0.00,,,0.00,673,HR-IXPWINDi_r2_v1.2.,2013-07-05 13:46:00,
2013-07-05 09:52:00,84.7,73.8,30.13,SSW,209,5.0,7.0,70,0.00,,,0.00,684,HR-IXPWINDi_r2_v1.2.,2013-07-05 13:52:00,
2013-07-05 09:57:00,83.8,73.3,30.13,WSW,254,1.0,8.0,71,0.00,,,0.00,696,HR-IXPWINDi_r2_v1.2.,2013-07-05 13:57:00,
2013-07-05 10:02:00,84.4,73.5,30.13,SSW,209,5.0,8.0,70,0.00,,,0.00,707,HR-IXPWINDi_r2_v1.2.,2013-07-05 14:02:00,
2013-07-05 10:08:00,83.9,72.6,30.13,South,186,4.0,7.0,69,0.00,,,0.00,717,HR-IXPWINDi_r2_v1.2.,2013-07-05 14:08:00,
2013-07-05 10:13:00,82.1,72.1,30.13,South,171,2.0,6.0,72,0.00,,,0.00,731,HR-IXPWINDi_r2_v1.2.,2013-07-05 14:13:00,
2013-07-05 10:18:00,81.7,72.2,30.13,SSW,200,4.0,5.0,73,0.00,,,0.00,729,HR-IXPWINDi_r2_v1.2.,2013-07-05 14:18:00,
2013-07-05 10:23:00,81.2,72.1,30.13,South,191,2.0,5.0,74,0.00,,,0.00,749,HR-IXPWINDi_r2_v1.2.,2013-07-05 14:23:00,
2013-07-05 10:28:00,80.2,71.9,30.13,South,182,0.0,6.0,76,0.00,,,0.00,756,HR-IXPWINDi_r2_v1.2.,2013-07-05 14:28:00,
2013-07-05 10:33:00,81.9,73.1,30.13,South,175,2.0,6.0,75,0.00,,,0.00,763,HR-IXPWINDi_r2_v1.2.,2013-07-05 14:33:00,
2013-07-05 10:38:00,83.1,73.1,30.13,SSW,196,2.0,4.0,72,0.00,,,0.00,777,HR-IXPWINDi_r2_v1.2.,2013-07-05 14:38:00,
2013-07-05 10:43:00,83.8,73.3,30.13,South,171,0.0,5.0,71,0.00,,,0.00,793,HR-IXPWINDi_r2_v1.2.,2013-07-05 14:43:00,
2013-07-05 10:49:00,83.2,72.8,30.13,SSE,160,1.0,6.0,71,0.00,,,0.00,779,HR-IXPWINDi_r2_v1.2.,2013-07-05 14:49:00,
2013-07-05 10:54:00,83.3,73.3,30.13,SSE,153,3.0,6.0,72,0.00,,,0.00,805,HR-IXPWINDi_r2_v1.2.,2013-07-05 14:54:00,
2013-07-05 10:59:00,83.0,73.0,30.13,South,188,2.0,6.0,72,0.00,,,0.00,802,HR-IXPWINDi_r2_v1.2.,2013-07-05 14:59:00,
2013-07-05 11:04:00,82.7,72.7,30.12,South,170,3.0,6.0,72,0.00,,,0.00,809,HR-IXPWINDi_r2_v1.2.,2013-07-05 15:04:00,
2013-07-05 11:09:00,83.2,73.2,30.12,SE,145,3.0,6.0,72,0.00,,,0.00,823,HR-IXPWINDi_r2_v1.2.,2013-07-05 15:09:00,
2013-07-05 11:14:00,83.6,72.7,30.12,SSE,153,2.0,6.0,70,0.00,,,0.00,828,HR-IXPWINDi_r2_v1.2.,2013-07-05 15:14:00,
2013-07-05 11:19:00,83.6,73.2,30.12,South,171,4.0,6.0,71,0.00,,,0.00,837,HR-IXPWINDi_r2_v1.2.,2013-07-05 15:19:00,
2013-07-05 11:24:00,83.6,72.7,30.12,SE,140,3.0,6.0,70,0.00,,,0.00,840,HR-IXPWINDi_r2_v1.2.,2013-07-05 15:24:00,
2013-07-05 11:30:00,83.6,73.6,30.12,SSW,205,2.0,7.0,72,0.00,,,0.00,847,HR-IXPWINDi_r2_v1.2.,2013-07-05 15:30:00,
2013-07-05 11:35:00,83.7,72.8,30.12,South,172,4.0,7.0,70,0.00,,,0.00,851,HR-IXPWINDi_r2_v1.2.,2013-07-05 15:35:00,
2013-07-05 11:40:00,83.0,72.6,30.12,South,173,6.0,8.0,71,0.00,,,0.00,867,HR-IXPWINDi_r2_v1.2.,2013-07-05 15:40:00,
2013-07-05 11:45:00,83.4,73.0,30.12,SE,145,4.0,8.0,71,0.00,,,0.00,874,HR-IXPWINDi_r2_v1.2.,2013-07-05 15:45:00,
2013-07-05 11:50:00,82.5,72.5,30.12,South,190,4.0,8.0,72,0.00,,,0.00,874,HR-IXPWINDi_r2_v1.2.,2013-07-05 15:50:00,
2013-07-05 11:55:00,81.9,72.3,30.11,ESE,107,4.0,8.0,73,0.00,,,0.00,886,HR-IXPWINDi_r2_v1.2.,2013-07-05 15:55:00,
2013-07-05 12:00:00,82.7,73.1,30.11,SE,140,3.0,8.0,73,0.00,,,0.00,877,HR-IXPWINDi_r2_v1.2.,2013-07-05 16:00:00,
2013-07-05 12:06:00,84.4,73.5,30.11,SE,137,4.0,6.0,70,0.00,,,0.00,886,HR-IXPWINDi_r2_v1.2.,2013-07-05 16:06:00,
2013-07-05 12:11:00,83.9,73.4,30.11,SSE,156,3.0,9.0,71,0.00,,,0.00,918,HR-IXPWINDi_r2_v1.2.,2013-07-05 16:11:00,
2013-07-05 12:16:00,84.5,74.0,30.11,South,172,6.0,9.0,71,0.00,,,0.00,886,HR-IXPWINDi_r2_v1.2.,2013-07-05 16:16:00,
2013-07-05 12:21:00,84.6,73.7,30.11,SSE,164,2.0,8.0,70,0.00,,,0.00,882,HR-IXPWINDi_r2_v1.2.,2013-07-05 16:21:00,
2013-07-05 12:26:00,84.4,73.9,30.11,SSE,150,3.0,8.0,71,0.00,,,0.00,896,HR-IXPWINDi_r2_v1.2.,2013-07-05 16:26:00,
2013-07-05 12:31:00,84.9,74.0,30.11,SSE,147,2.0,8.0,70,0.00,,,0.00,896,HR-IXPWINDi_r2_v1.2.,2013-07-05 16:31:00,
2013-07-05 12:36:00,85.4,74.0,30.10,South,188,6.0,7.0,69,0.00,,,0.00,900,HR-IXPWINDi_r2_v1.2.,2013-07-05 16:36:00,
2013-07-05 12:42:00,85.6,73.8,30.10,ESE,115,5.0,7.0,68,0.00,,,0.00,919,HR-IXPWINDi_r2_v1.2.,2013-07-05 16:42:00,
2013-07-05 12:47:00,85.3,73.5,30.10,SSE,159,3.0,7.0,68,0.00,,,0.00,976,HR-IXPWINDi_r2_v1.2.,2013-07-05 16:47:00,
2013-07-05 12:52:00,85.9,74.1,30.10,SSE,164,3.0,7.0,68,0.00,,,0.00,981,HR-IXPWINDi_r2_v1.2.,2013-07-05 16:52:00,
2013-07-05 12:57:00,85.4,73.1,30.10,SSW,197,4.0,7.0,67,0.00,,,0.00,267,HR-IXPWINDi_r2_v1.2.,2013-07-05 16:57:00,
2013-07-05 13:02:00,84.6,73.3,30.10,SE,136,4.0,9.0,69,0.00,,,0.00,288,HR-IXPWINDi_r2_v1.2.,2013-07-05 17:02:00,
2013-07-05 13:08:00,85.2,73.4,30.10,SE,139,2.0,9.0,68,0.00,,,0.00,1044,HR-IXPWINDi_r2_v1.2.,2013-07-05 17:08:00,
2013-07-05 13:13:00,84.5,72.7,30.09,SSE,150,6.0,7.0,68,0.00,,,0.00,185,HR-IXPWINDi_r2_v1.2.,2013-07-05 17:13:00,
2013-07-05 13:18:00,83.5,72.6,30.09,South,171,6.0,8.0,70,0.00,,,0.00,202,HR-IXPWINDi_r2_v1.2.,2013-07-05 17:18:00,
2013-07-05 13:23:00,83.5,72.6,30.09,SSE,164,4.0,9.0,70,0.00,,,0.00,223,HR-IXPWINDi_r2_v1.2.,2013-07-05 17:23:00,
2013-07-05 13:28:00,83.4,72.1,30.09,SE,134,6.0,9.0,69,0.00,,,0.00,232,HR-IXPWINDi_r2_v1.2.,2013-07-05 17:28:00,
2013-07-05 13:33:00,84.0,72.7,30.09,SSE,155,3.0,9.0,69,0.00,,,0.00,200,HR-IXPWINDi_r2_v1.2.,2013-07-05 17:33:00,
2013-07-05 13:39:00,82.2,71.4,30.09,SSE,148,4.0,9.0,70,0.00,,,0.00,232,HR-IXPWINDi_r2_v1.2.,2013-07-05 17:39:00,
2013-07-05 13:44:00,82.5,72.5,30.08,South,171,4.0,9.0,72,0.00,,,0.00,297,HR-IXPWINDi_r2_v1.2.,2013-07-05 17:44:00,
2013-07-05 13:49:00,82.0,72.0,30.08,SSE,155,6.0,11.0,72,0.00,,,0.00,995,HR-IXPWINDi_r2_v1.2.,2013-07-05 17:49:00,
2013-07-05 13:54:00,80.7,72.4,30.08,SE,134,8.0,13.0,76,0.00,,,0.00,953,HR-IXPWINDi_r2_v1.2.,2013-07-05 17:54:00,
2013-07-05 13:59:00,79.7,71.8,30.08,SSE,156,8.0,14.0,77,0.00,,,0.00,963,HR-IXPWINDi_r2_v1.2.,2013-07-05 17:59:00,
2013-07-05 14:04:00,79.5,72.0,30.08,SE,136,7.0,14.0,78,0.00,,,0.00,979,HR-IXPWINDi_r2_v1.2.,2013-07-05 18:04:00,
2013-07-05 14:09:00,79.8,71.5,30.08,SE,146,7.0,16.0,76,0.00,,,0.00,926,HR-IXPWINDi_r2_v1.2.,2013-07-05 18:09:00,
2013-07-05 14:15:00,78.7,71.2,30.08,South,175,7.0,16.0,78,0.00,,,0.00,169,HR-IXPWINDi_r2_v1.2.,2013-07-05 18:15:00,
2013-07-05 14:20:00,78.5,71.4,30.08,SE,146,3.0,12.0,79,0.00,,,0.00,155,HR-IXPWINDi_r2_v1.2.,2013-07-05 18:20:00,
2013-07-05 14:25:00,78.5,71.4,30.08,SE,145,6.0,11.0,79,0.00,,,0.00,947,HR-IXPWINDi_r2_v1.2.,2013-07-05 18:25:00,
2013-07-05 14:30:00,78.7,71.6,30.08,South,191,2.0,10.0,79,0.00,,,0.00,962,HR-IXPWINDi_r2_v1.2.,2013-07-05 18:30:00,
2013-07-05 14:35:00,79.1,71.2,30.08,SSE,157,7.0,11.0,77,0.00,,,0.00,183,HR-IXPWINDi_r2_v1.2.,2013-07-05 18:35:00,
2013-07-05 14:40:00,78.4,70.9,30.08,South,182,7.0,12.0,78,0.00,,,0.00,981,HR-IXPWINDi_r2_v1.2.,2013-07-05 18:40:00,
2013-07-05 14:45:00,79.9,72.0,30.08,SSE,148,9.0,14.0,77,0.00,,,0.00,186,HR-IXPWINDi_r2_v1.2.,2013-07-05 18:45:00,
2013-07-05 14:50:00,80.6,72.3,30.07,SSE,164,10.0,14.0,76,0.00,,,0.00,246,HR-IXPWINDi_r2_v1.2.,2013-07-05 18:50:00,
2013-07-05 14:55:00,81.4,72.3,30.07,SE,145,6.0,13.0,74,0.00,,,0.00,330,HR-IXPWINDi_r2_v1.2.,2013-07-05 18:55:00,
2013-07-05 15:00:00,81.5,71.6,30.07,SSE,150,5.0,10.0,72,0.00,,,0.00,881,HR-IXPWINDi_r2_v1.2.,2013-07-05 19:00:00,
2013-07-05 15:06:00,81.4,71.9,30.07,SE,140,4.0,10.0,73,0.00,,,0.00,824,HR-IXPWINDi_r2_v1.2.,2013-07-05 19:06:00,
2013-07-05 15:11:00,83.8,72.9,30.06,SE,128,5.0,11.0,70,0.00,,,0.00,782,HR-IXPWINDi_r2_v1.2.,2013-07-05 19:11:00,
2013-07-05 15:16:00,84.9,72.7,30.06,SE,138,3.0,11.0,67,0.00,,,0.00,758,HR-IXPWINDi_r2_v1.2.,2013-07-05 19:16:00,
2013-07-05 15:21:00,86.2,73.0,30.06,South,169,2.0,8.0,65,0.00,,,0.00,766,HR-IXPWINDi_r2_v1.2.,2013-07-05 19:21:00,
2013-07-05 15:26:00,86.4,72.3,30.05,SSE,150,0.0,8.0,63,0.00,,,0.00,795,HR-IXPWINDi_r2_v1.2.,2013-07-05 19:26:00,
2013-07-05 15:31:00,86.1,71.5,30.05,South,180,1.0,6.0,62,0.00,,,0.00,798,HR-IXPWINDi_r2_v1.2.,2013-07-05 19:31:00,
2013-07-05 15:37:00,86.8,71.7,30.05,SSE,157,1.0,7.0,61,0.00,,,0.00,765,HR-IXPWINDi_r2_v1.2.,2013-07-05 19:37:00,
2013-07-05 15:42:00,87.9,71.7,30.05,South,172,2.0,7.0,59,0.00,,,0.00,744,HR-IXPWINDi_r2_v1.2.,2013-07-05 19:42:00,
2013-07-05 15:47:00,87.8,71.6,30.04,South,179,5.0,10.0,59,0.00,,,0.00,162,HR-IXPWINDi_r2_v1.2.,2013-07-05 19:47:00,
2013-07-05 15:52:00,86.1,71.0,30.04,South,181,6.0,10.0,61,0.00,,,0.00,770,HR-IXPWINDi_r2_v1.2.,2013-07-05 19:52:00,
2013-07-05 15:57:00,84.6,71.5,30.04,SSW,193,9.0,11.0,65,0.00,,,0.00,696,HR-IXPWINDi_r2_v1.2.,2013-07-05 19:57:00,
2013-07-05 16:02:00,85.3,71.2,30.04,SSW,198,9.0,12.0,63,0.00,,,0.00,686,HR-IXPWINDi_r2_v1.2.,2013-07-05 20:02:00,
2013-07-05 16:08:00,85.8,71.7,30.04,South,190,11.0,14.0,63,0.00,,,0.00,666,HR-IXPWINDi_r2_v1.2.,2013-07-05 20:08:00,
2013-07-05 16:13:00,85.2,71.6,30.04,SSW,202,13.0,14.0,64,0.00,,,0.00,120,HR-IXPWINDi_r2_v1.2.,2013-07-05 20:13:00,
2013-07-05 16:18:00,85.4,71.3,30.03,SSW,203,11.0,15.0,63,0.00,,,0.00,149,HR-IXPWINDi_r2_v1.2.,2013-07-05 20:18:00,
2013-07-05 16:23:00,84.7,71.1,30.03,SSW,198,14.0,16.0,64,0.00,,,0.00,225,HR-IXPWINDi_r2_v1.2.,2013-07-05 20:23:00,
2013-07-05 16:28:00,85.9,71.8,30.03,SSW,202,11.0,17.0,63,0.00,,,0.00,624,HR-IXPWINDi_r2_v1.2.,2013-07-05 20:28:00,
2013-07-05 16:34:00,85.4,71.3,30.03,SSW,207,7.0,17.0,63,0.00,,,0.00,608,HR-IXPWINDi_r2_v1.2.,2013-07-05 20:34:00,
2013-07-05 16:39:00,85.5,71.9,30.03,SSW,211,13.0,18.0,64,0.00,,,0.00,592,HR-IXPWINDi_r2_v1.2.,2013-07-05 20:39:00,
2013-07-05 16:44:00,86.3,71.7,30.03,SSW,207,13.0,18.0,62,0.00,,,0.00,582,HR-IXPWINDi_r2_v1.2.,2013-07-05 20:44:00,
2013-07-05 16:49:00,86.3,71.2,30.03,SSW,212,10.0,15.0,61,0.00,,,0.00,125,HR-IXPWINDi_r2_v1.2.,2013-07-05 20:49:00,
2013-07-05 16:55:00,85.1,71.5,30.03,SW,225,13.0,15.0,64,0.00,,,0.00,462,HR-IXPWINDi_r2_v1.2.,2013-07-05 20:55:00,
2013-07-05 17:00:00,86.8,70.7,30.03,SW,214,11.0,18.0,59,0.00,,,0.00,503,HR-IXPWINDi_r2_v1.2.,2013-07-05 21:00:00,
2013-07-05 17:05:00,87.0,71.9,30.03,SSW,211,12.0,18.0,61,0.00,,,0.00,501,HR-IXPWINDi_r2_v1.2.,2013-07-05 21:05:00,
2013-07-05 17:10:00,87.7,71.6,30.03,SSW,212,13.0,20.0,59,0.00,,,0.00,483,HR-IXPWINDi_r2_v1.2.,2013-07-05 21:10:00,
2013-07-05 17:15:00,87.2,72.1,30.03,SSW,212,10.0,20.0,61,0.00,,,0.00,90,HR-IXPWINDi_r2_v1.2.,2013-07-05 21:15:00,
2013-07-05 17:20:00,86.9,71.8,30.03,SW,215,8.0,18.0,61,0.00,,,0.00,455,HR-IXPWINDi_r2_v1.2.,2013-07-05 21:20:00,
2013-07-05 17:25:00,85.7,71.1,30.03,SSW,213,10.0,15.0,62,0.00,,,0.00,432,HR-IXPWINDi_r2_v1.2.,2013-07-05 21:25:00,
2013-07-05 17:30:00,87.0,71.4,30.03,WSW,247,11.0,21.0,60,0.00,,,0.00,429,HR-IXPWINDi_r2_v1.2.,2013-07-05 21:30:00,
2013-07-05 17:36:00,88.6,71.4,30.03,SSW,210,13.0,21.0,57,0.00,,,0.00,429,HR-IXPWINDi_r2_v1.2.,2013-07-05 21:36:00,
2013-07-05 17:41:00,86.2,71.6,30.03,SSW,198,11.0,15.0,62,0.00,,,0.00,394,HR-IXPWINDi_r2_v1.2.,2013-07-05 21:41:00,
2013-07-05 17:46:00,84.5,70.9,30.03,SSW,200,12.0,15.0,64,0.00,,,0.00,369,HR-IXPWINDi_r2_v1.2.,2013-07-05 21:46:00,
2013-07-05 17:51:00,83.0,70.4,30.03,SSW,196,9.0,13.0,66,0.00,,,0.00,353,HR-IXPWINDi_r2_v1.2.,2013-07-05 21:51:00,
2013-07-05 17:56:00,83.4,70.8,30.03,SW,221,12.0,13.0,66,0.00,,,0.00,341,HR-IXPWINDi_r2_v1.2.,2013-07-05 21:56:00,
2013-07-05 18:02:00,83.3,71.1,30.03,SW,224,13.0,13.0,67,0.00,,,0.00,325,HR-IXPWINDi_r2_v1.2.,2013-07-05 22:02:00,
2013-07-05 18:07:00,83.8,71.2,30.02,SSW,198,14.0,15.0,66,0.00,,,0.00,322,HR-IXPWINDi_r2_v1.2.,2013-07-05 22:07:00,
2013-07-05 18:12:00,84.6,71.5,30.03,SSW,208,13.0,17.0,65,0.00,,,0.00,297,HR-IXPWINDi_r2_v1.2.,2013-07-05 22:12:00,
2013-07-05 18:17:00,83.3,70.3,30.02,SSW,202,11.0,17.0,65,0.00,,,0.00,290,HR-IXPWINDi_r2_v1.2.,2013-07-05 22:17:00,
2013-07-05 18:23:00,82.3,71.1,30.02,SSW,202,13.0,14.0,69,0.00,,,0.00,271,HR-IXPWINDi_r2_v1.2.,2013-07-05 22:23:00,
2013-07-05 18:28:00,83.1,71.4,30.02,SSW,205,11.0,15.0,68,0.00,,,0.00,246,HR-IXPWINDi_r2_v1.2.,2013-07-05 22:28:00,
2013-07-05 18:33:00,82.7,71.0,30.02,SSW,204,8.0,15.0,68,0.00,,,0.00,234,HR-IXPWINDi_r2_v1.2.,2013-07-05 22:33:00,
2013-07-05 18:38:00,82.1,70.9,30.03,SSW,206,9.0,13.0,69,0.00,,,0.00,209,HR-IXPWINDi_r2_v1.2.,2013-07-05 22:38:00,
2013-07-05 18:43:00,82.5,71.3,30.02,SSW,205,10.0,15.0,69,0.00,,,0.00,192,HR-IXPWINDi_r2_v1.2.,2013-07-05 22:43:00,
2013-07-05 18:49:00,82.6,70.5,30.02,SW,217,13.0,15.0,67,0.00,,,0.00,169,HR-IXPWINDi_r2_v1.2.,2013-07-05 22:49:00,
2013-07-05 18:54:00,82.9,70.8,30.02,SSW,202,12.0,18.0,67,0.00,,,0.00,156,HR-IXPWINDi_r2_v1.2.,2013-07-05 22:54:00,
2013-07-05 18:59:00,81.9,70.3,30.02,SSW,207,10.0,18.0,68,0.00,,,0.00,137,HR-IXPWINDi_r2_v1.2.,2013-07-05 22:59:00,
2013-07-05 19:04:00,81.8,70.6,30.02,SSW,205,10.0,14.0,69,0.00,,,0.00,123,HR-IXPWINDi_r2_v1.2.,2013-07-05 23:04:00,
2013-07-05 19:10:00,81.0,70.2,30.02,SSW,209,12.0,12.0,70,0.00,,,0.00,109,HR-IXPWINDi_r2_v1.2.,2013-07-05 23:10:00,
2013-07-05 19:15:00,81.2,70.0,30.02,SSW,211,13.0,13.0,69,0.00,,,0.00,91,HR-IXPWINDi_r2_v1.2.,2013-07-05 23:15:00,
2013-07-05 19:20:00,81.2,70.4,30.02,SW,215,11.0,13.0,70,0.00,,,0.00,76,HR-IXPWINDi_r2_v1.2.,2013-07-05 23:20:00,
2013-07-05 19:25:00,81.5,70.3,30.03,SSW,205,10.0,13.0,69,0.00,,,0.00,65,HR-IXPWINDi_r2_v1.2.,2013-07-05 23:25:00,
2013-07-05 19:30:00,81.0,70.2,30.03,SSW,209,7.0,13.0,70,0.00,,,0.00,56,HR-IXPWINDi_r2_v1.2.,2013-07-05 23:30:00,
2013-07-05 19:35:00,80.2,69.9,30.02,SSW,198,7.0,12.0,71,0.00,,,0.00,46,HR-IXPWINDi_r2_v1.2.,2013-07-05 23:35:00,
2013-07-05 19:41:00,80.3,70.0,30.02,SSW,207,9.0,12.0,71,0.00,,,0.00,33,HR-IXPWINDi_r2_v1.2.,2013-07-05 23:41:00,
2013-07-05 19:46:00,79.8,69.9,30.02,SSW,205,7.0,12.0,72,0.00,,,0.00,18,HR-IXPWINDi_r2_v1.2.,2013-07-05 23:46:00,
2013-07-05 19:51:00,79.4,70.3,30.02,SSW,213,9.0,12.0,74,0.00,,,0.00,11,HR-IXPWINDi_r2_v1.2.,2013-07-05 23:51:00,
2013-07-05 19:56:00,79.2,70.9,30.02,SW,214,9.0,13.0,76,0.00,,,0.00,9,HR-IXPWINDi_r2_v1.2.,2013-07-05 23:56:00,
2013-07-05 20:02:00,78.9,70.6,30.02,SW,219,11.0,13.0,76,0.00,,,0.00,7,HR-IXPWINDi_r2_v1.2.,2013-07-06 00:02:00,
2013-07-05 20:07:00,78.2,70.3,30.02,SSW,207,12.0,13.0,77,0.00,,,0.00,5,HR-IXPWINDi_r2_v1.2.,2013-07-06 00:07:00,
2013-07-05 20:12:00,78.4,71.3,30.02,SSW,211,11.0,15.0,79,0.00,,,0.00,0,HR-IXPWINDi_r2_v1.2.,2013-07-06 00:12:00,
2013-07-05 20:17:00,78.3,70.8,30.02,SSW,209,10.0,15.0,78,0.00,,,0.00,0,HR-IXPWINDi_r2_v1.2.,2013-07-06 00:17:00,
2013-07-05 20:22:00,78.2,71.1,30.02,SSW,209,10.0,14.0,79,0.00,,,0.00,0,HR-IXPWINDi_r2_v1.2.,2013-07-06 00:22:00,
2013-07-05 20:28:00,77.4,69.9,30.02,SSW,205,7.0,14.0,78,0.00,,,0.00,0,HR-IXPWINDi_r2_v1.2.,2013-07-06 00:28:00,
2013-07-05 20:33:00,77.6,71.2,30.02,SSW,209,16.0,18.0,81,0.00,,,0.00,0,HR-IXPWINDi_r2_v1.2.,2013-07-06 00:33:00,
2013-07-05 20:38:00,78.1,71.0,30.03,SSW,209,16.0,18.0,79,0.00,,,0.00,0,HR-IXPWINDi_r2_v1.2.,2013-07-06 00:38:00,
2013-07-05 20:43:00,78.4,70.5,30.03,SW,218,13.0,18.0,77,0.00,,,0.00,0,HR-IXPWINDi_r2_v1.2.,2013-07-06 00:43:00,
2013-07-05 20:49:00,77.9,70.4,30.03,SSW,209,15.0,18.0,78,0.00,,,0.00,0,HR-IXPWINDi_r2_v1.2.,2013-07-06 00:49:00,
2013-07-05 20:54:00,78.1,70.6,30.03,SSW,213,13.0,16.0,78,0.00,,,0.00,0,HR-IXPWINDi_r2_v1.2.,2013-07-06 00:54:00,
2013-07-05 20:59:00,77.5,70.0,30.03,SSW,210,12.0,16.0,78,0.00,,,0.00,0,HR-IXPWINDi_r2_v1.2.,2013-07-06 00:59:00,
2013-07-05 21:04:00,77.2,70.1,30.03,SSW,205,15.0,16.0,79,0.00,,,0.00,0,HR-IXPWINDi_r2_v1.2.,2013-07-06 01:04:00,
2013-07-05 21:10:00,77.5,70.8,30.02,SSW,199,16.0,18.0,80,0.00,,,0.00,0,HR-IXPWINDi_r2_v1.2.,2013-07-06 01:10:00,
2013-07-05 21:15:00,78.1,71.0,30.02,SSW,198,15.0,18.0,79,0.00,,,0.00,0,HR-IXPWINDi_r2_v1.2.,2013-07-06 01:15:00,
2013-07-05 21:20:00,78.3,71.2,30.03,SSW,202,13.0,17.0,79,0.00,,,0.00,0,HR-IXPWINDi_r2_v1.2.,2013-07-06 01:20:00,
2013-07-05 21:25:00,78.2,71.1,30.03,SSW,205,12.0,17.0,79,0.00,,,0.00,0,HR-IXPWINDi_r2_v1.2.,2013-07-06 01:25:00,
2013-07-05 21:30:00,77.6,70.9,30.04,SSW,209,15.0,17.0,80,0.00,,,0.00,0,HR-IXPWINDi_r2_v1.2.,2013-07-06 01:30:00,
2013-07-05 21:35:00,77.4,70.7,30.04,SW,214,13.0,16.0,80,0.00,,,0.00,0,HR-IXPWINDi_r2_v1.2.,2013-07-06 01:35:00,
2013-07-05 21:41:00,76.8,70.5,30.05,SW,214,12.0,16.0,81,0.00,,,0.00,0,HR-IXPWINDi_r2_v1.2.,2013-07-06 01:41:00,
2013-07-05 21:46:00,76.5,70.9,30.05,SSW,202,12.0,15.0,83,0.00,,,0.00,0,HR-IXPWINDi_r2_v1.2.,2013-07-06 01:46:00,
2013-07-05 21:51:00,76.7,71.1,30.05,SSW,205,12.0,15.0,83,0.00,,,0.00,0,HR-IXPWINDi_r2_v1.2.,2013-07-06 01:51:00,
2013-07-05 21:57:00,76.5,70.9,30.05,SSW,200,12.0,15.0,83,0.00,,,0.00,0,HR-IXPWINDi_r2_v1.2.,2013-07-06 01:57:00,
2013-07-05 22:02:00,76.4,70.8,30.05,SSW,207,13.0,14.0,83,0.00,,,0.00,0,HR-IXPWINDi_r2_v1.2.,2013-07-06 02:02:00,
2013-07-05 22:07:00,76.3,70.7,30.05,SW,218,12.0,14.0,83,0.00,,,0.00,0,HR-IXPWINDi_r2_v1.2.,2013-07-06 02:07:00,
2013-07-05 22:12:00,76.0,70.8,30.05,SW,217,10.0,14.0,84,0.00,,,0.00,0,HR-IXPWINDi_r2_v1.2.,2013-07-06 02:12:00,
2013-07-05 22:18:00,76.3,71.1,30.04,SSW,208,13.0,14.0,84,0.00,,,0.00,0,HR-IXPWINDi_r2_v1.2.,2013-07-06 02:18:00,
2013-07-05 22:23:00,76.2,71.0,30.04,SW,215,10.0,14.0,84,0.00,,,0.00,0,HR-IXPWINDi_r2_v1.2.,2013-07-06 02:23:00,
2013-07-05 22:28:00,75.7,70.8,30.04,SSW,200,11.0,15.0,85,0.00,,,0.00,0,HR-IXPWINDi_r2_v1.2.,2013-07-06 02:28:00,
2013-07-05 22:33:00,76.4,71.5,30.04,SSW,210,8.0,15.0,85,0.00,,,0.00,0,HR-IXPWINDi_r2_v1.2.,2013-07-06 02:33:00,
2013-07-05 22:38:00,76.1,70.9,30.04,SW,219,10.0,13.0,84,0.00,,,0.00,0,HR-IXPWINDi_r2_v1.2.,2013-07-06 02:38:00,
2013-07-05 22:43:00,75.9,71.0,30.04,SSW,213,7.0,12.0,85,0.00,,,0.00,0,HR-IXPWINDi_r2_v1.2.,2013-07-06 02:43:00,
2013-07-05 22:48:00,75.9,71.0,30.04,SW,214,10.0,11.0,85,0.00,,,0.00,0,HR-IXPWINDi_r2_v1.2.,2013-07-06 02:48:00,
2013-07-05 22:54:00,76.0,71.1,30.04,SW,214,11.0,12.0,85,0.00,,,0.00,0,HR-IXPWINDi_r2_v1.2.,2013-07-06 02:54:00,
2013-07-05 22:59:00,75.3,70.4,30.04,SW,215,8.0,12.0,85,0.00,,,0.00,0,HR-IXPWINDi_r2_v1.2.,2013-07-06 02:59:00,
2013-07-05 23:04:00,74.7,70.2,30.04,SW,220,8.0,11.0,86,0.00,,,0.00,0,HR-IXPWINDi_r2_v1.2.,2013-07-06 03:04:00,
2013-07-05 23:09:00,74.6,70.4,30.04,SSW,213,8.0,11.0,87,0.00,,,0.00,0,HR-IXPWINDi_r2_v1.2.,2013-07-06 03:09:00,
2013-07-05 23:14:00,74.6,70.4,30.04,SW,215,9.0,11.0,87,0.00,,,0.00,0,HR-IXPWINDi_r2_v1.2.,2013-07-06 03:14:00,
2013-07-05 23:19:00,74.4,70.2,30.04,SW,221,9.0,11.0,87,0.00,,,0.00,0,HR-IXPWINDi_r2_v1.2.,2013-07-06 03:19:00,
2013-07-05 23:25:00,74.6,70.4,30.04,SW,215,8.0,11.0,87,0.00,,,0.00,0,HR-IXPWINDi_r2_v1.2.,2013-07-06 03:25:00,
2013-07-05 23:30:00,74.4,70.6,30.04,SW,222,8.0,10.0,88,0.00,,,0.00,0,HR-IXPWINDi_r2_v1.2.,2013-07-06 03:30:00,
2013-07-05 23:35:00,74.8,71.3,30.04,SSW,213,10.0,14.0,89,0.00,,,0.00,0,HR-IXPWINDi_r2_v1.2.,2013-07-06 03:35:00,
2013-07-05 23:40:00,75.3,71.1,30.04,SW,217,11.0,14.0,87,0.00,,,0.00,0,HR-IXPWINDi_r2_v1.2.,2013-07-06 03:40:00,
2013-07-05 23:46:00,75.1,70.9,30.05,SSW,211,6.0,12.0,87,0.00,,,0.00,0,HR-IXPWINDi_r2_v1.2.,2013-07-06 03:46:00,
2013-07-05 23:51:00,74.6,70.4,30.05,SW,219,7.0,11.0,87,0.00,,,0.00,0,HR-IXPWINDi_r2_v1.2.,2013-07-06 03:51:00,
2013-07-05 23:56:00,74.7,70.8,30.05,WSW,246,7.0,10.0,88,0.00,,,0.00,0,HR-IXPWINDi_r2_v1.2.,2013-07-06 03:56:00,